sensor_id;sensor_type;location;lat;lon;timestamp;P1;durP1;ratioP1;P2;durP2;ratioP2
11504;SDS011;5809;53.262;10.408;2023-09-30T00:01:08;14.63;;;4.18;;
11504;SDS011;5809;53.262;10.408;2023-09-30T00:03:35;18.40;;;4.32;;
11504;SDS011;5809;53.262;10.408;2023-09-30T00:06:04;15.60;;;4.50;;
11504;SDS011;5809;53.262;10.408;2023-09-30T00:08:30;20.88;;;4.43;;
11504;SDS011;5809;53.262;10.408;2023-09-30T00:10:58;16.25;;;4.30;;
11504;SDS011;5809;53.262;10.408;2023-09-30T00:13:24;16.95;;;4.68;;
11504;SDS011;5809;53.262;10.408;2023-09-30T00:15:52;21.23;;;4.85;;
11504;SDS011;5809;53.262;10.408;2023-09-30T00:18:18;16.15;;;4.93;;
11504;SDS011;5809;53.262;10.408;2023-09-30T00:20:45;18.08;;;4.65;;
11504;SDS011;5809;53.262;10.408;2023-09-30T00:23:14;10.27;;;4.03;;
11504;SDS011;5809;53.262;10.408;2023-09-30T00:25:41;18.92;;;4.32;;
11504;SDS011;5809;53.262;10.408;2023-09-30T00:28:09;16.98;;;4.28;;
11504;SDS011;5809;53.262;10.408;2023-09-30T00:30:36;19.90;;;5.13;;
11504;SDS011;5809;53.262;10.408;2023-09-30T00:33:03;13.48;;;4.22;;
11504;SDS011;5809;53.262;10.408;2023-09-30T00:35:31;15.82;;;4.57;;
11504;SDS011;5809;53.262;10.408;2023-09-30T00:37:58;13.00;;;4.05;;
11504;SDS011;5809;53.262;10.408;2023-09-30T00:40:26;14.48;;;4.78;;
11504;SDS011;5809;53.262;10.408;2023-09-30T00:42:53;15.50;;;4.50;;
11504;SDS011;5809;53.262;10.408;2023-09-30T00:45:20;19.73;;;4.90;;
11504;SDS011;5809;53.262;10.408;2023-09-30T00:47:47;14.77;;;4.03;;
11504;SDS011;5809;53.262;10.408;2023-09-30T00:50:16;22.80;;;5.22;;
11504;SDS011;5809;53.262;10.408;2023-09-30T00:52:45;16.20;;;4.43;;
11504;SDS011;5809;53.262;10.408;2023-09-30T00:55:13;17.10;;;5.15;;
11504;SDS011;5809;53.262;10.408;2023-09-30T00:57:42;15.45;;;4.85;;
11504;SDS011;5809;53.262;10.408;2023-09-30T01:00:10;14.27;;;4.13;;
11504;SDS011;5809;53.262;10.408;2023-09-30T01:02:38;22.27;;;5.03;;
11504;SDS011;5809;53.262;10.408;2023-09-30T01:05:06;17.92;;;4.80;;
11504;SDS011;5809;53.262;10.408;2023-09-30T01:07:33;20.38;;;5.05;;
11504;SDS011;5809;53.262;10.408;2023-09-30T01:10:00;23.08;;;4.63;;
11504;SDS011;5809;53.262;10.408;2023-09-30T01:12:27;22.58;;;5.30;;
11504;SDS011;5809;53.262;10.408;2023-09-30T01:14:58;19.50;;;4.22;;
11504;SDS011;5809;53.262;10.408;2023-09-30T01:17:25;20.05;;;4.78;;
11504;SDS011;5809;53.262;10.408;2023-09-30T01:19:54;20.60;;;5.28;;
11504;SDS011;5809;53.262;10.408;2023-09-30T01:22:22;17.02;;;4.82;;
11504;SDS011;5809;53.262;10.408;2023-09-30T01:24:49;14.00;;;4.55;;
11504;SDS011;5809;53.262;10.408;2023-09-30T01:27:16;11.50;;;4.63;;
11504;SDS011;5809;53.262;10.408;2023-09-30T01:29:43;17.83;;;4.63;;
11504;SDS011;5809;53.262;10.408;2023-09-30T01:32:10;20.70;;;5.32;;
11504;SDS011;5809;53.262;10.408;2023-09-30T01:34:37;13.63;;;4.60;;
11504;SDS011;5809;53.262;10.408;2023-09-30T01:37:04;14.85;;;4.82;;
11504;SDS011;5809;53.262;10.408;2023-09-30T01:39:33;19.83;;;5.22;;
11504;SDS011;5809;53.262;10.408;2023-09-30T01:42:00;16.95;;;4.95;;
11504;SDS011;5809;53.262;10.408;2023-09-30T01:44:27;15.25;;;4.57;;
11504;SDS011;5809;53.262;10.408;2023-09-30T01:46:54;16.73;;;4.95;;
11504;SDS011;5809;53.262;10.408;2023-09-30T01:49:21;11.23;;;4.93;;
11504;SDS011;5809;53.262;10.408;2023-09-30T01:51:51;19.65;;;4.97;;
11504;SDS011;5809;53.262;10.408;2023-09-30T01:54:18;15.15;;;4.55;;
11504;SDS011;5809;53.262;10.408;2023-09-30T01:56:46;18.65;;;5.10;;
11504;SDS011;5809;53.262;10.408;2023-09-30T01:59:14;16.98;;;4.70;;
11504;SDS011;5809;53.262;10.408;2023-09-30T02:01:43;19.13;;;4.88;;
11504;SDS011;5809;53.262;10.408;2023-09-30T02:04:11;20.20;;;4.45;;
11504;SDS011;5809;53.262;10.408;2023-09-30T02:06:40;16.10;;;4.47;;
11504;SDS011;5809;53.262;10.408;2023-09-30T02:09:07;12.55;;;5.32;;
11504;SDS011;5809;53.262;10.408;2023-09-30T02:11:34;15.23;;;4.90;;
11504;SDS011;5809;53.262;10.408;2023-09-30T02:14:03;19.52;;;5.18;;
11504;SDS011;5809;53.262;10.408;2023-09-30T02:16:31;15.40;;;5.05;;
11504;SDS011;5809;53.262;10.408;2023-09-30T02:18:58;19.02;;;4.65;;
11504;SDS011;5809;53.262;10.408;2023-09-30T02:21:25;16.90;;;4.50;;
11504;SDS011;5809;53.262;10.408;2023-09-30T02:23:53;24.92;;;4.60;;
11504;SDS011;5809;53.262;10.408;2023-09-30T02:26:21;20.35;;;5.13;;
11504;SDS011;5809;53.262;10.408;2023-09-30T02:28:50;20.13;;;5.55;;
11504;SDS011;5809;53.262;10.408;2023-09-30T02:31:20;22.55;;;5.30;;
11504;SDS011;5809;53.262;10.408;2023-09-30T02:33:47;15.90;;;5.30;;
11504;SDS011;5809;53.262;10.408;2023-09-30T02:36:13;20.90;;;5.40;;
11504;SDS011;5809;53.262;10.408;2023-09-30T02:38:41;19.70;;;6.20;;
11504;SDS011;5809;53.262;10.408;2023-09-30T02:41:08;16.30;;;5.30;;
11504;SDS011;5809;53.262;10.408;2023-09-30T02:43:35;19.23;;;5.30;;
11504;SDS011;5809;53.262;10.408;2023-09-30T02:46:03;18.35;;;4.90;;
11504;SDS011;5809;53.262;10.408;2023-09-30T02:48:31;17.05;;;5.30;;
11504;SDS011;5809;53.262;10.408;2023-09-30T02:50:58;13.93;;;5.13;;
11504;SDS011;5809;53.262;10.408;2023-09-30T02:53:25;14.05;;;5.50;;
11504;SDS011;5809;53.262;10.408;2023-09-30T02:55:52;19.38;;;6.18;;
11504;SDS011;5809;53.262;10.408;2023-09-30T02:58:21;18.13;;;6.13;;
11504;SDS011;5809;53.262;10.408;2023-09-30T03:00:48;17.67;;;5.70;;
11504;SDS011;5809;53.262;10.408;2023-09-30T03:03:15;17.83;;;6.22;;
11504;SDS011;5809;53.262;10.408;2023-09-30T03:05:43;19.23;;;5.82;;
11504;SDS011;5809;53.262;10.408;2023-09-30T03:08:10;17.02;;;5.82;;
11504;SDS011;5809;53.262;10.408;2023-09-30T03:10:37;16.48;;;6.18;;
11504;SDS011;5809;53.262;10.408;2023-09-30T03:13:05;17.73;;;6.10;;
11504;SDS011;5809;53.262;10.408;2023-09-30T03:15:34;21.05;;;6.68;;
11504;SDS011;5809;53.262;10.408;2023-09-30T03:18:01;22.90;;;6.57;;
11504;SDS011;5809;53.262;10.408;2023-09-30T03:20:28;23.15;;;6.43;;
11504;SDS011;5809;53.262;10.408;2023-09-30T03:22:57;23.98;;;7.65;;
11504;SDS011;5809;53.262;10.408;2023-09-30T03:25:24;22.63;;;7.63;;
11504;SDS011;5809;53.262;10.408;2023-09-30T03:27:52;20.37;;;6.70;;
11504;SDS011;5809;53.262;10.408;2023-09-30T03:30:19;16.23;;;6.20;;
11504;SDS011;5809;53.262;10.408;2023-09-30T03:32:46;24.45;;;7.00;;
11504;SDS011;5809;53.262;10.408;2023-09-30T03:35:13;20.13;;;6.25;;
11504;SDS011;5809;53.262;10.408;2023-09-30T03:37:42;22.67;;;6.88;;
11504;SDS011;5809;53.262;10.408;2023-09-30T03:40:11;22.17;;;6.93;;
11504;SDS011;5809;53.262;10.408;2023-09-30T03:42:39;24.30;;;6.40;;
11504;SDS011;5809;53.262;10.408;2023-09-30T03:45:07;20.00;;;6.32;;
11504;SDS011;5809;53.262;10.408;2023-09-30T03:47:35;22.27;;;6.78;;
11504;SDS011;5809;53.262;10.408;2023-09-30T03:50:03;16.48;;;5.80;;
11504;SDS011;5809;53.262;10.408;2023-09-30T03:52:37;17.70;;;7.00;;
11504;SDS011;5809;53.262;10.408;2023-09-30T03:55:05;20.85;;;6.47;;
11504;SDS011;5809;53.262;10.408;2023-09-30T03:57:35;20.65;;;6.45;;
11504;SDS011;5809;53.262;10.408;2023-09-30T04:00:02;20.55;;;6.38;;
11504;SDS011;5809;53.262;10.408;2023-09-30T04:02:31;22.70;;;6.20;;
11504;SDS011;5809;53.262;10.408;2023-09-30T04:04:59;18.85;;;6.15;;
11504;SDS011;5809;53.262;10.408;2023-09-30T04:07:29;20.63;;;6.13;;
11504;SDS011;5809;53.262;10.408;2023-09-30T04:09:57;20.75;;;6.15;;
11504;SDS011;5809;53.262;10.408;2023-09-30T04:12:26;19.35;;;5.57;;
11504;SDS011;5809;53.262;10.408;2023-09-30T04:14:55;24.85;;;6.72;;
11504;SDS011;5809;53.262;10.408;2023-09-30T04:17:23;20.88;;;6.43;;
11504;SDS011;5809;53.262;10.408;2023-09-30T04:19:51;20.02;;;6.95;;
11504;SDS011;5809;53.262;10.408;2023-09-30T04:22:18;17.33;;;5.90;;
11504;SDS011;5809;53.262;10.408;2023-09-30T04:24:49;17.67;;;5.75;;
11504;SDS011;5809;53.262;10.408;2023-09-30T04:27:16;17.13;;;5.53;;
11504;SDS011;5809;53.262;10.408;2023-09-30T04:29:43;16.75;;;5.72;;
11504;SDS011;5809;53.262;10.408;2023-09-30T04:32:11;22.17;;;6.43;;
11504;SDS011;5809;53.262;10.408;2023-09-30T04:34:38;17.55;;;6.25;;
11504;SDS011;5809;53.262;10.408;2023-09-30T04:37:05;16.20;;;5.97;;
11504;SDS011;5809;53.262;10.408;2023-09-30T04:39:34;19.83;;;6.10;;
11504;SDS011;5809;53.262;10.408;2023-09-30T04:42:01;18.05;;;6.15;;
11504;SDS011;5809;53.262;10.408;2023-09-30T04:44:29;16.15;;;5.68;;
11504;SDS011;5809;53.262;10.408;2023-09-30T04:46:55;23.87;;;6.47;;
11504;SDS011;5809;53.262;10.408;2023-09-30T04:49:24;19.48;;;6.45;;
11504;SDS011;5809;53.262;10.408;2023-09-30T04:51:51;16.25;;;5.63;;
11504;SDS011;5809;53.262;10.408;2023-09-30T04:54:18;14.98;;;5.53;;
11504;SDS011;5809;53.262;10.408;2023-09-30T04:56:46;21.95;;;6.78;;
11504;SDS011;5809;53.262;10.408;2023-09-30T04:59:13;18.75;;;5.95;;
11504;SDS011;5809;53.262;10.408;2023-09-30T05:01:40;25.90;;;6.43;;
11504;SDS011;5809;53.262;10.408;2023-09-30T05:04:07;17.83;;;5.50;;
11504;SDS011;5809;53.262;10.408;2023-09-30T05:06:35;18.27;;;5.60;;
11504;SDS011;5809;53.262;10.408;2023-09-30T05:09:02;20.00;;;6.22;;
11504;SDS011;5809;53.262;10.408;2023-09-30T05:11:30;21.05;;;6.18;;
11504;SDS011;5809;53.262;10.408;2023-09-30T05:13:57;20.10;;;6.13;;
11504;SDS011;5809;53.262;10.408;2023-09-30T05:16:24;22.40;;;6.57;;
11504;SDS011;5809;53.262;10.408;2023-09-30T05:18:52;17.58;;;5.57;;
11504;SDS011;5809;53.262;10.408;2023-09-30T05:21:19;14.68;;;5.60;;
11504;SDS011;5809;53.262;10.408;2023-09-30T05:23:48;14.40;;;5.28;;
11504;SDS011;5809;53.262;10.408;2023-09-30T05:26:15;22.70;;;5.78;;
11504;SDS011;5809;53.262;10.408;2023-09-30T05:28:42;16.33;;;5.57;;
11504;SDS011;5809;53.262;10.408;2023-09-30T05:31:09;19.88;;;5.72;;
11504;SDS011;5809;53.262;10.408;2023-09-30T05:33:36;19.92;;;6.00;;
11504;SDS011;5809;53.262;10.408;2023-09-30T05:36:03;20.63;;;5.75;;
11504;SDS011;5809;53.262;10.408;2023-09-30T05:38:30;18.67;;;6.22;;
11504;SDS011;5809;53.262;10.408;2023-09-30T05:40:58;18.88;;;5.55;;
11504;SDS011;5809;53.262;10.408;2023-09-30T05:43:26;19.25;;;6.50;;
11504;SDS011;5809;53.262;10.408;2023-09-30T05:45:53;15.65;;;5.05;;
11504;SDS011;5809;53.262;10.408;2023-09-30T05:48:20;16.17;;;5.75;;
11504;SDS011;5809;53.262;10.408;2023-09-30T05:50:47;19.35;;;5.72;;
11504;SDS011;5809;53.262;10.408;2023-09-30T05:53:14;23.10;;;6.10;;
11504;SDS011;5809;53.262;10.408;2023-09-30T05:55:41;14.63;;;5.68;;
11504;SDS011;5809;53.262;10.408;2023-09-30T05:58:12;24.13;;;5.85;;
11504;SDS011;5809;53.262;10.408;2023-09-30T06:00:41;11.30;;;5.13;;
11504;SDS011;5809;53.262;10.408;2023-09-30T06:03:08;21.52;;;5.93;;
11504;SDS011;5809;53.262;10.408;2023-09-30T06:05:38;18.65;;;5.10;;
11504;SDS011;5809;53.262;10.408;2023-09-30T06:08:07;14.68;;;4.90;;
11504;SDS011;5809;53.262;10.408;2023-09-30T06:10:39;17.52;;;5.55;;
11504;SDS011;5809;53.262;10.408;2023-09-30T06:13:07;18.38;;;5.55;;
11504;SDS011;5809;53.262;10.408;2023-09-30T06:15:37;15.02;;;4.90;;
11504;SDS011;5809;53.262;10.408;2023-09-30T06:18:06;16.85;;;5.13;;
11504;SDS011;5809;53.262;10.408;2023-09-30T06:20:34;17.85;;;4.82;;
11504;SDS011;5809;53.262;10.408;2023-09-30T06:23:02;16.92;;;4.85;;
11504;SDS011;5809;53.262;10.408;2023-09-30T06:25:29;19.10;;;5.50;;
11504;SDS011;5809;53.262;10.408;2023-09-30T06:27:58;16.33;;;4.63;;
11504;SDS011;5809;53.262;10.408;2023-09-30T06:30:25;18.73;;;5.45;;
11504;SDS011;5809;53.262;10.408;2023-09-30T06:32:56;19.00;;;5.50;;
11504;SDS011;5809;53.262;10.408;2023-09-30T06:35:24;17.95;;;5.03;;
11504;SDS011;5809;53.262;10.408;2023-09-30T06:37:51;18.40;;;5.15;;
11504;SDS011;5809;53.262;10.408;2023-09-30T06:40:18;13.43;;;4.78;;
11504;SDS011;5809;53.262;10.408;2023-09-30T06:42:45;19.25;;;4.82;;
11504;SDS011;5809;53.262;10.408;2023-09-30T06:45:12;16.92;;;4.95;;
11504;SDS011;5809;53.262;10.408;2023-09-30T06:47:40;14.23;;;4.38;;
11504;SDS011;5809;53.262;10.408;2023-09-30T06:50:10;14.48;;;4.63;;
11504;SDS011;5809;53.262;10.408;2023-09-30T06:52:41;15.63;;;4.07;;
11504;SDS011;5809;53.262;10.408;2023-09-30T06:55:10;16.20;;;4.13;;
11504;SDS011;5809;53.262;10.408;2023-09-30T06:57:39;11.75;;;4.05;;
11504;SDS011;5809;53.262;10.408;2023-09-30T07:00:06;10.77;;;4.00;;
11504;SDS011;5809;53.262;10.408;2023-09-30T07:02:34;8.15;;;3.72;;
11504;SDS011;5809;53.262;10.408;2023-09-30T07:05:02;13.20;;;3.72;;
11504;SDS011;5809;53.262;10.408;2023-09-30T07:07:33;13.85;;;3.90;;
11504;SDS011;5809;53.262;10.408;2023-09-30T07:10:00;14.75;;;4.25;;
11504;SDS011;5809;53.262;10.408;2023-09-30T07:12:27;8.93;;;3.47;;
11504;SDS011;5809;53.262;10.408;2023-09-30T07:14:54;17.05;;;4.20;;
11504;SDS011;5809;53.262;10.408;2023-09-30T07:17:20;9.88;;;3.42;;
11504;SDS011;5809;53.262;10.408;2023-09-30T07:19:47;14.82;;;3.92;;
11504;SDS011;5809;53.262;10.408;2023-09-30T07:22:15;12.88;;;3.45;;
11504;SDS011;5809;53.262;10.408;2023-09-30T07:24:44;11.60;;;4.05;;
11504;SDS011;5809;53.262;10.408;2023-09-30T07:27:11;10.40;;;3.55;;
11504;SDS011;5809;53.262;10.408;2023-09-30T07:29:38;9.18;;;3.40;;
11504;SDS011;5809;53.262;10.408;2023-09-30T07:32:06;12.70;;;4.00;;
11504;SDS011;5809;53.262;10.408;2023-09-30T07:34:33;11.00;;;3.60;;
11504;SDS011;5809;53.262;10.408;2023-09-30T07:37:01;15.65;;;3.95;;
11504;SDS011;5809;53.262;10.408;2023-09-30T07:39:29;11.00;;;4.03;;
11504;SDS011;5809;53.262;10.408;2023-09-30T07:41:57;8.98;;;3.38;;
11504;SDS011;5809;53.262;10.408;2023-09-30T07:44:24;8.00;;;3.10;;
11504;SDS011;5809;53.262;10.408;2023-09-30T07:46:50;8.75;;;3.33;;
11504;SDS011;5809;53.262;10.408;2023-09-30T07:49:17;10.55;;;4.07;;
11504;SDS011;5809;53.262;10.408;2023-09-30T07:51:44;10.93;;;3.40;;
11504;SDS011;5809;53.262;10.408;2023-09-30T07:54:12;8.90;;;3.30;;
11504;SDS011;5809;53.262;10.408;2023-09-30T07:56:39;10.40;;;3.20;;
11504;SDS011;5809;53.262;10.408;2023-09-30T07:59:07;11.23;;;3.70;;
11504;SDS011;5809;53.262;10.408;2023-09-30T08:01:34;9.57;;;3.35;;
11504;SDS011;5809;53.262;10.408;2023-09-30T08:04:02;11.75;;;3.75;;
11504;SDS011;5809;53.262;10.408;2023-09-30T08:06:29;8.88;;;3.78;;
11504;SDS011;5809;53.262;10.408;2023-09-30T08:08:56;9.07;;;3.05;;
11504;SDS011;5809;53.262;10.408;2023-09-30T08:11:23;12.20;;;3.58;;
11504;SDS011;5809;53.262;10.408;2023-09-30T08:13:52;14.30;;;3.80;;
11504;SDS011;5809;53.262;10.408;2023-09-30T08:16:21;9.52;;;3.40;;
11504;SDS011;5809;53.262;10.408;2023-09-30T08:18:48;8.23;;;3.05;;
11504;SDS011;5809;53.262;10.408;2023-09-30T08:21:15;9.85;;;2.88;;
11504;SDS011;5809;53.262;10.408;2023-09-30T08:23:41;14.23;;;3.28;;
11504;SDS011;5809;53.262;10.408;2023-09-30T08:26:09;12.93;;;3.33;;
11504;SDS011;5809;53.262;10.408;2023-09-30T08:28:36;13.52;;;3.10;;
11504;SDS011;5809;53.262;10.408;2023-09-30T08:31:03;10.43;;;3.45;;
11504;SDS011;5809;53.262;10.408;2023-09-30T08:33:32;8.77;;;3.30;;
11504;SDS011;5809;53.262;10.408;2023-09-30T08:36:02;8.82;;;3.03;;
11504;SDS011;5809;53.262;10.408;2023-09-30T08:38:32;7.20;;;3.00;;
11504;SDS011;5809;53.262;10.408;2023-09-30T08:40:59;11.52;;;3.10;;
11504;SDS011;5809;53.262;10.408;2023-09-30T08:43:27;10.57;;;3.03;;
11504;SDS011;5809;53.262;10.408;2023-09-30T08:45:56;10.85;;;3.28;;
11504;SDS011;5809;53.262;10.408;2023-09-30T08:48:24;7.22;;;2.75;;
11504;SDS011;5809;53.262;10.408;2023-09-30T08:50:54;11.63;;;2.85;;
11504;SDS011;5809;53.262;10.408;2023-09-30T08:53:22;9.20;;;3.15;;
11504;SDS011;5809;53.262;10.408;2023-09-30T08:55:52;8.43;;;3.08;;
11504;SDS011;5809;53.262;10.408;2023-09-30T08:58:20;8.10;;;2.72;;
11504;SDS011;5809;53.262;10.408;2023-09-30T09:00:50;9.00;;;2.75;;
11504;SDS011;5809;53.262;10.408;2023-09-30T09:03:18;10.43;;;3.00;;
11504;SDS011;5809;53.262;10.408;2023-09-30T09:05:45;9.23;;;2.80;;
11504;SDS011;5809;53.262;10.408;2023-09-30T09:08:13;9.48;;;3.40;;
11504;SDS011;5809;53.262;10.408;2023-09-30T09:10:47;9.57;;;3.00;;
11504;SDS011;5809;53.262;10.408;2023-09-30T09:13:21;9.38;;;2.55;;
11504;SDS011;5809;53.262;10.408;2023-09-30T09:15:48;7.63;;;2.55;;
11504;SDS011;5809;53.262;10.408;2023-09-30T09:18:19;9.68;;;2.90;;
11504;SDS011;5809;53.262;10.408;2023-09-30T09:21:08;12.80;;;3.28;;
11504;SDS011;5809;53.262;10.408;2023-09-30T09:23:41;8.63;;;3.03;;
11504;SDS011;5809;53.262;10.408;2023-09-30T09:26:09;9.82;;;2.60;;
11504;SDS011;5809;53.262;10.408;2023-09-30T09:28:37;10.23;;;3.47;;
11504;SDS011;5809;53.262;10.408;2023-09-30T09:33:49;9.13;;;3.05;;
11504;SDS011;5809;53.262;10.408;2023-09-30T09:36:17;9.02;;;2.80;;
11504;SDS011;5809;53.262;10.408;2023-09-30T09:38:47;7.38;;;2.70;;
11504;SDS011;5809;53.262;10.408;2023-09-30T09:41:18;11.30;;;2.63;;
11504;SDS011;5809;53.262;10.408;2023-09-30T09:43:45;9.63;;;3.33;;
11504;SDS011;5809;53.262;10.408;2023-09-30T09:46:15;8.90;;;3.05;;
11504;SDS011;5809;53.262;10.408;2023-09-30T09:48:43;12.75;;;3.13;;
11504;SDS011;5809;53.262;10.408;2023-09-30T09:51:12;12.65;;;2.92;;
11504;SDS011;5809;53.262;10.408;2023-09-30T09:53:40;5.75;;;2.50;;
11504;SDS011;5809;53.262;10.408;2023-09-30T09:56:10;9.65;;;2.83;;
11504;SDS011;5809;53.262;10.408;2023-09-30T09:58:39;9.68;;;2.95;;
11504;SDS011;5809;53.262;10.408;2023-09-30T10:01:07;8.35;;;2.70;;
11504;SDS011;5809;53.262;10.408;2023-09-30T10:03:36;10.07;;;2.95;;
11504;SDS011;5809;53.262;10.408;2023-09-30T10:06:04;9.43;;;2.67;;
11504;SDS011;5809;53.262;10.408;2023-09-30T10:08:32;8.75;;;2.30;;
11504;SDS011;5809;53.262;10.408;2023-09-30T10:11:02;7.80;;;2.53;;
11504;SDS011;5809;53.262;10.408;2023-09-30T10:19:17;8.13;;;2.70;;
11504;SDS011;5809;53.262;10.408;2023-09-30T10:22:19;9.90;;;2.65;;
11504;SDS011;5809;53.262;10.408;2023-09-30T10:24:48;10.20;;;2.83;;
11504;SDS011;5809;53.262;10.408;2023-09-30T10:27:34;7.35;;;2.65;;
11504;SDS011;5809;53.262;10.408;2023-09-30T10:30:08;7.55;;;2.40;;
11504;SDS011;5809;53.262;10.408;2023-09-30T10:35:48;6.32;;;2.60;;
11504;SDS011;5809;53.262;10.408;2023-09-30T10:38:36;12.63;;;3.22;;
11504;SDS011;5809;53.262;10.408;2023-09-30T10:41:06;12.80;;;2.60;;
11504;SDS011;5809;53.262;10.408;2023-09-30T10:43:34;5.88;;;2.13;;
11504;SDS011;5809;53.262;10.408;2023-09-30T10:46:10;9.07;;;2.75;;
11504;SDS011;5809;53.262;10.408;2023-09-30T10:52:12;7.03;;;2.47;;
11504;SDS011;5809;53.262;10.408;2023-09-30T10:54:48;9.93;;;2.42;;
11504;SDS011;5809;53.262;10.408;2023-09-30T10:57:29;6.72;;;2.30;;
11504;SDS011;5809;53.262;10.408;2023-09-30T11:00:18;8.13;;;2.60;;
11504;SDS011;5809;53.262;10.408;2023-09-30T11:02:51;7.32;;;2.05;;
11504;SDS011;5809;53.262;10.408;2023-09-30T11:05:29;9.93;;;2.20;;
11504;SDS011;5809;53.262;10.408;2023-09-30T11:08:21;9.30;;;2.70;;
11504;SDS011;5809;53.262;10.408;2023-09-30T11:10:48;8.18;;;2.58;;
11504;SDS011;5809;53.262;10.408;2023-09-30T11:13:15;6.80;;;2.33;;
11504;SDS011;5809;53.262;10.408;2023-09-30T11:15:43;6.72;;;2.53;;
11504;SDS011;5809;53.262;10.408;2023-09-30T11:18:14;7.43;;;2.38;;
11504;SDS011;5809;53.262;10.408;2023-09-30T11:20:42;7.05;;;2.30;;
11504;SDS011;5809;53.262;10.408;2023-09-30T11:23:10;7.90;;;2.30;;
11504;SDS011;5809;53.262;10.408;2023-09-30T11:25:37;6.03;;;2.03;;
11504;SDS011;5809;53.262;10.408;2023-09-30T11:28:12;8.30;;;2.80;;
11504;SDS011;5809;53.262;10.408;2023-09-30T11:30:52;9.73;;;2.40;;
11504;SDS011;5809;53.262;10.408;2023-09-30T11:33:24;5.75;;;2.05;;
11504;SDS011;5809;53.262;10.408;2023-09-30T11:36:00;6.80;;;2.40;;
11504;SDS011;5809;53.262;10.408;2023-09-30T11:38:29;4.70;;;2.28;;
11504;SDS011;5809;53.262;10.408;2023-09-30T11:40:59;6.35;;;2.90;;
11504;SDS011;5809;53.262;10.408;2023-09-30T11:43:29;7.90;;;2.70;;
11504;SDS011;5809;53.262;10.408;2023-09-30T11:46:05;6.22;;;2.40;;
11504;SDS011;5809;53.262;10.408;2023-09-30T11:48:35;7.18;;;2.08;;
11504;SDS011;5809;53.262;10.408;2023-09-30T11:51:02;10.05;;;2.58;;
11504;SDS011;5809;53.262;10.408;2023-09-30T11:53:29;8.60;;;2.58;;
11504;SDS011;5809;53.262;10.408;2023-09-30T11:55:57;5.43;;;2.28;;
11504;SDS011;5809;53.262;10.408;2023-09-30T11:58:25;6.78;;;2.30;;
11504;SDS011;5809;53.262;10.408;2023-09-30T12:00:53;6.95;;;2.53;;
11504;SDS011;5809;53.262;10.408;2023-09-30T12:03:22;5.85;;;2.15;;
11504;SDS011;5809;53.262;10.408;2023-09-30T12:05:52;6.82;;;2.40;;
11504;SDS011;5809;53.262;10.408;2023-09-30T12:08:20;8.82;;;2.80;;
11504;SDS011;5809;53.262;10.408;2023-09-30T12:10:47;4.55;;;1.90;;
11504;SDS011;5809;53.262;10.408;2023-09-30T12:13:14;9.50;;;2.33;;
11504;SDS011;5809;53.262;10.408;2023-09-30T12:15:41;4.68;;;1.73;;
11504;SDS011;5809;53.262;10.408;2023-09-30T12:18:09;8.10;;;2.28;;
11504;SDS011;5809;53.262;10.408;2023-09-30T12:20:38;8.43;;;2.22;;
11504;SDS011;5809;53.262;10.408;2023-09-30T12:23:07;7.70;;;2.25;;
11504;SDS011;5809;53.262;10.408;2023-09-30T12:25:34;4.40;;;2.10;;
11504;SDS011;5809;53.262;10.408;2023-09-30T12:28:02;5.82;;;2.30;;
11504;SDS011;5809;53.262;10.408;2023-09-30T12:30:30;4.95;;;3.05;;
11504;SDS011;5809;53.262;10.408;2023-09-30T12:32:57;6.90;;;3.75;;
11504;SDS011;5809;53.262;10.408;2023-09-30T12:35:24;9.85;;;3.28;;
11504;SDS011;5809;53.262;10.408;2023-09-30T12:37:51;6.55;;;2.92;;
11504;SDS011;5809;53.262;10.408;2023-09-30T12:40:19;5.45;;;2.72;;
11504;SDS011;5809;53.262;10.408;2023-09-30T12:42:47;9.20;;;3.05;;
11504;SDS011;5809;53.262;10.408;2023-09-30T12:45:14;9.05;;;2.95;;
11504;SDS011;5809;53.262;10.408;2023-09-30T12:47:42;7.38;;;2.72;;
11504;SDS011;5809;53.262;10.408;2023-09-30T12:50:09;3.88;;;1.75;;
11504;SDS011;5809;53.262;10.408;2023-09-30T12:52:36;5.90;;;1.92;;
11504;SDS011;5809;53.262;10.408;2023-09-30T12:55:04;7.00;;;2.10;;
11504;SDS011;5809;53.262;10.408;2023-09-30T12:57:33;4.80;;;2.10;;
11504;SDS011;5809;53.262;10.408;2023-09-30T13:00:00;6.55;;;2.03;;
11504;SDS011;5809;53.262;10.408;2023-09-30T13:02:27;7.30;;;2.15;;
11504;SDS011;5809;53.262;10.408;2023-09-30T13:04:55;4.40;;;1.85;;
11504;SDS011;5809;53.262;10.408;2023-09-30T13:07:22;4.43;;;1.73;;
11504;SDS011;5809;53.262;10.408;2023-09-30T13:09:50;4.97;;;2.08;;
11504;SDS011;5809;53.262;10.408;2023-09-30T13:12:17;3.25;;;1.45;;
11504;SDS011;5809;53.262;10.408;2023-09-30T13:14:45;3.85;;;1.48;;
11504;SDS011;5809;53.262;10.408;2023-09-30T13:17:12;7.13;;;1.73;;
11504;SDS011;5809;53.262;10.408;2023-09-30T13:19:39;5.35;;;1.92;;
11504;SDS011;5809;53.262;10.408;2023-09-30T13:22:06;4.05;;;1.52;;
11504;SDS011;5809;53.262;10.408;2023-09-30T13:24:33;4.57;;;1.73;;
11504;SDS011;5809;53.262;10.408;2023-09-30T13:27:04;3.22;;;1.58;;
11504;SDS011;5809;53.262;10.408;2023-09-30T13:29:31;6.30;;;2.30;;
11504;SDS011;5809;53.262;10.408;2023-09-30T13:32:00;6.45;;;3.60;;
11504;SDS011;5809;53.262;10.408;2023-09-30T13:34:26;5.47;;;2.00;;
11504;SDS011;5809;53.262;10.408;2023-09-30T13:36:54;5.75;;;2.15;;
11504;SDS011;5809;53.262;10.408;2023-09-30T13:39:22;8.68;;;1.77;;
11504;SDS011;5809;53.262;10.408;2023-09-30T13:41:50;4.90;;;1.88;;
11504;SDS011;5809;53.262;10.408;2023-09-30T13:44:16;5.45;;;1.65;;
11504;SDS011;5809;53.262;10.408;2023-09-30T13:46:44;5.38;;;1.85;;
11504;SDS011;5809;53.262;10.408;2023-09-30T13:49:12;10.80;;;2.10;;
11504;SDS011;5809;53.262;10.408;2023-09-30T13:51:39;7.40;;;2.17;;
11504;SDS011;5809;53.262;10.408;2023-09-30T13:54:06;4.03;;;1.75;;
11504;SDS011;5809;53.262;10.408;2023-09-30T13:56:33;4.65;;;1.60;;
11504;SDS011;5809;53.262;10.408;2023-09-30T13:59:00;6.43;;;1.80;;
11504;SDS011;5809;53.262;10.408;2023-09-30T14:01:27;3.55;;;1.50;;
11504;SDS011;5809;53.262;10.408;2023-09-30T14:03:54;3.50;;;1.40;;
11504;SDS011;5809;53.262;10.408;2023-09-30T14:06:24;7.10;;;1.92;;
11504;SDS011;5809;53.262;10.408;2023-09-30T14:08:51;5.25;;;1.70;;
11504;SDS011;5809;53.262;10.408;2023-09-30T14:11:18;5.28;;;1.77;;
11504;SDS011;5809;53.262;10.408;2023-09-30T14:13:45;5.22;;;1.90;;
11504;SDS011;5809;53.262;10.408;2023-09-30T14:16:12;3.95;;;1.67;;
11504;SDS011;5809;53.262;10.408;2023-09-30T14:18:39;4.60;;;1.42;;
11504;SDS011;5809;53.262;10.408;2023-09-30T14:21:05;5.25;;;1.50;;
11504;SDS011;5809;53.262;10.408;2023-09-30T14:23:34;6.07;;;2.00;;
11504;SDS011;5809;53.262;10.408;2023-09-30T14:26:01;4.97;;;1.60;;
11504;SDS011;5809;53.262;10.408;2023-09-30T14:28:35;5.60;;;1.80;;
11504;SDS011;5809;53.262;10.408;2023-09-30T14:31:02;4.60;;;1.63;;
11504;SDS011;5809;53.262;10.408;2023-09-30T14:33:30;6.75;;;1.98;;
11504;SDS011;5809;53.262;10.408;2023-09-30T14:35:57;5.65;;;2.00;;
11504;SDS011;5809;53.262;10.408;2023-09-30T14:38:24;4.97;;;2.10;;
11504;SDS011;5809;53.262;10.408;2023-09-30T14:40:53;4.82;;;1.65;;
11504;SDS011;5809;53.262;10.408;2023-09-30T14:43:20;5.03;;;1.73;;
11504;SDS011;5809;53.262;10.408;2023-09-30T14:45:47;8.45;;;2.10;;
11504;SDS011;5809;53.262;10.408;2023-09-30T14:48:14;5.97;;;1.90;;
11504;SDS011;5809;53.262;10.408;2023-09-30T14:50:47;5.43;;;1.80;;
11504;SDS011;5809;53.262;10.408;2023-09-30T14:53:15;4.50;;;1.80;;
11504;SDS011;5809;53.262;10.408;2023-09-30T14:55:42;5.53;;;1.60;;
11504;SDS011;5809;53.262;10.408;2023-09-30T14:58:10;3.90;;;1.63;;
11504;SDS011;5809;53.262;10.408;2023-09-30T15:00:37;5.03;;;1.58;;
11504;SDS011;5809;53.262;10.408;2023-09-30T15:03:04;5.75;;;1.60;;